sensor_id;sensor_type;location;lat;lon;timestamp;P1;durP1;ratioP1;P2;durP2;ratioP2
15938;SDS011;8068;51.322;9.450;2023-05-07T00:02:12;19.10;;;14.57;;
15938;SDS011;8068;51.322;9.450;2023-05-07T00:04:38;15.40;;;14.00;;
15938;SDS011;8068;51.322;9.450;2023-05-07T00:07:05;15.60;;;13.93;;
15938;SDS011;8068;51.322;9.450;2023-05-07T00:09:31;16.47;;;14.53;;
15938;SDS011;8068;51.322;9.450;2023-05-07T00:11:57;15.20;;;13.70;;
15938;SDS011;8068;51.322;9.450;2023-05-07T00:14:23;18.40;;;13.40;;
15938;SDS011;8068;51.322;9.450;2023-05-07T00:16:50;15.30;;;13.90;;
15938;SDS011;8068;51.322;9.450;2023-05-07T00:19:16;17.20;;;15.50;;
15938;SDS011;8068;51.322;9.450;2023-05-07T00:21:42;22.73;;;14.47;;
15938;SDS011;8068;51.322;9.450;2023-05-07T00:24:08;15.07;;;13.40;;
15938;SDS011;8068;51.322;9.450;2023-05-07T00:26:34;16.40;;;14.70;;
15938;SDS011;8068;51.322;9.450;2023-05-07T00:29:00;15.23;;;13.80;;
15938;SDS011;8068;51.322;9.450;2023-05-07T00:31:26;17.90;;;15.33;;
15938;SDS011;8068;51.322;9.450;2023-05-07T00:33:53;15.43;;;13.77;;
15938;SDS011;8068;51.322;9.450;2023-05-07T00:36:19;16.37;;;14.63;;
15938;SDS011;8068;51.322;9.450;2023-05-07T00:38:45;16.00;;;14.43;;
15938;SDS011;8068;51.322;9.450;2023-05-07T00:41:11;15.67;;;14.27;;
15938;SDS011;8068;51.322;9.450;2023-05-07T00:43:37;16.80;;;15.20;;
15938;SDS011;8068;51.322;9.450;2023-05-07T00:46:03;14.90;;;13.50;;
15938;SDS011;8068;51.322;9.450;2023-05-07T00:48:30;16.87;;;15.17;;
15938;SDS011;8068;51.322;9.450;2023-05-07T00:50:56;16.87;;;15.27;;
15938;SDS011;8068;51.322;9.450;2023-05-07T00:53:22;16.00;;;14.47;;
15938;SDS011;8068;51.322;9.450;2023-05-07T00:55:48;18.43;;;14.93;;
15938;SDS011;8068;51.322;9.450;2023-05-07T00:58:15;17.67;;;15.87;;
15938;SDS011;8068;51.322;9.450;2023-05-07T01:00:41;17.50;;;15.70;;
15938;SDS011;8068;51.322;9.450;2023-05-07T01:03:07;15.87;;;14.40;;
15938;SDS011;8068;51.322;9.450;2023-05-07T01:05:34;17.40;;;15.80;;
15938;SDS011;8068;51.322;9.450;2023-05-07T01:08:01;16.73;;;15.10;;
15938;SDS011;8068;51.322;9.450;2023-05-07T01:10:28;18.50;;;16.67;;
15938;SDS011;8068;51.322;9.450;2023-05-07T01:12:57;18.07;;;16.10;;
15938;SDS011;8068;51.322;9.450;2023-05-07T01:15:24;25.70;;;18.27;;
15938;SDS011;8068;51.322;9.450;2023-05-07T01:17:50;22.53;;;17.97;;
15938;SDS011;8068;51.322;9.450;2023-05-07T01:20:17;23.03;;;17.53;;
15938;SDS011;8068;51.322;9.450;2023-05-07T01:22:43;16.93;;;15.13;;
15938;SDS011;8068;51.322;9.450;2023-05-07T01:25:10;18.67;;;16.47;;
15938;SDS011;8068;51.322;9.450;2023-05-07T01:27:36;18.20;;;16.37;;
15938;SDS011;8068;51.322;9.450;2023-05-07T01:30:05;20.93;;;16.13;;
15938;SDS011;8068;51.322;9.450;2023-05-07T01:32:37;19.63;;;17.53;;
15938;SDS011;8068;51.322;9.450;2023-05-07T01:35:07;20.17;;;17.20;;
15938;SDS011;8068;51.322;9.450;2023-05-07T01:37:36;23.53;;;18.10;;
15938;SDS011;8068;51.322;9.450;2023-05-07T01:40:04;22.47;;;17.07;;
15938;SDS011;8068;51.322;9.450;2023-05-07T01:42:30;19.67;;;17.17;;
15938;SDS011;8068;51.322;9.450;2023-05-07T01:44:57;19.40;;;17.40;;
15938;SDS011;8068;51.322;9.450;2023-05-07T01:47:24;20.63;;;17.23;;
15938;SDS011;8068;51.322;9.450;2023-05-07T01:49:50;21.73;;;18.70;;
15938;SDS011;8068;51.322;9.450;2023-05-07T01:52:17;26.17;;;17.80;;
15938;SDS011;8068;51.322;9.450;2023-05-07T01:54:43;22.93;;;18.73;;
15938;SDS011;8068;51.322;9.450;2023-05-07T01:57:09;24.20;;;19.90;;
15938;SDS011;8068;51.322;9.450;2023-05-07T01:59:35;24.40;;;20.60;;
15938;SDS011;8068;51.322;9.450;2023-05-07T02:02:01;26.10;;;20.53;;
15938;SDS011;8068;51.322;9.450;2023-05-07T02:04:28;22.97;;;19.93;;
15938;SDS011;8068;51.322;9.450;2023-05-07T02:06:54;24.60;;;20.00;;
15938;SDS011;8068;51.322;9.450;2023-05-07T02:09:21;25.27;;;21.17;;
15938;SDS011;8068;51.322;9.450;2023-05-07T02:11:48;24.90;;;20.50;;
15938;SDS011;8068;51.322;9.450;2023-05-07T02:14:14;27.13;;;21.00;;
15938;SDS011;8068;51.322;9.450;2023-05-07T02:16:41;22.00;;;19.20;;
15938;SDS011;8068;51.322;9.450;2023-05-07T02:19:07;24.37;;;20.10;;
15938;SDS011;8068;51.322;9.450;2023-05-07T02:21:33;24.00;;;19.67;;
15938;SDS011;8068;51.322;9.450;2023-05-07T02:23:59;24.00;;;19.10;;
15938;SDS011;8068;51.322;9.450;2023-05-07T02:26:26;21.23;;;18.80;;
15938;SDS011;8068;51.322;9.450;2023-05-07T02:28:52;27.40;;;19.40;;
15938;SDS011;8068;51.322;9.450;2023-05-07T02:31:19;25.57;;;20.37;;
15938;SDS011;8068;51.322;9.450;2023-05-07T02:33:45;28.60;;;20.33;;
15938;SDS011;8068;51.322;9.450;2023-05-07T02:36:12;24.40;;;19.87;;
15938;SDS011;8068;51.322;9.450;2023-05-07T02:38:38;26.00;;;20.67;;
15938;SDS011;8068;51.322;9.450;2023-05-07T02:41:04;27.60;;;21.80;;
15938;SDS011;8068;51.322;9.450;2023-05-07T02:43:30;29.23;;;22.07;;
15938;SDS011;8068;51.322;9.450;2023-05-07T02:46:00;24.17;;;20.73;;
15938;SDS011;8068;51.322;9.450;2023-05-07T02:48:30;27.63;;;22.33;;
15938;SDS011;8068;51.322;9.450;2023-05-07T02:50:57;28.37;;;21.43;;
15938;SDS011;8068;51.322;9.450;2023-05-07T02:53:23;29.03;;;22.20;;
15938;SDS011;8068;51.322;9.450;2023-05-07T02:55:58;23.30;;;19.20;;
15938;SDS011;8068;51.322;9.450;2023-05-07T02:58:25;31.57;;;22.40;;
15938;SDS011;8068;51.322;9.450;2023-05-07T03:00:52;27.60;;;21.00;;
15938;SDS011;8068;51.322;9.450;2023-05-07T03:03:18;30.03;;;23.53;;
15938;SDS011;8068;51.322;9.450;2023-05-07T03:05:44;26.10;;;20.43;;
15938;SDS011;8068;51.322;9.450;2023-05-07T03:08:11;26.57;;;20.73;;
15938;SDS011;8068;51.322;9.450;2023-05-07T03:10:37;28.83;;;22.10;;
15938;SDS011;8068;51.322;9.450;2023-05-07T03:13:03;25.60;;;21.20;;
15938;SDS011;8068;51.322;9.450;2023-05-07T03:15:30;30.03;;;23.00;;
15938;SDS011;8068;51.322;9.450;2023-05-07T03:17:56;31.97;;;23.80;;
15938;SDS011;8068;51.322;9.450;2023-05-07T03:20:23;30.20;;;24.77;;
15938;SDS011;8068;51.322;9.450;2023-05-07T03:22:49;31.97;;;21.37;;
15938;SDS011;8068;51.322;9.450;2023-05-07T03:25:15;30.20;;;22.40;;
15938;SDS011;8068;51.322;9.450;2023-05-07T03:27:41;24.33;;;20.80;;
15938;SDS011;8068;51.322;9.450;2023-05-07T03:30:08;29.13;;;22.47;;
15938;SDS011;8068;51.322;9.450;2023-05-07T03:32:34;29.97;;;22.60;;
15938;SDS011;8068;51.322;9.450;2023-05-07T03:35:04;25.73;;;21.07;;
15938;SDS011;8068;51.322;9.450;2023-05-07T03:37:30;29.30;;;21.87;;
15938;SDS011;8068;51.322;9.450;2023-05-07T03:39:56;33.23;;;24.07;;
15938;SDS011;8068;51.322;9.450;2023-05-07T03:42:23;26.80;;;21.10;;
15938;SDS011;8068;51.322;9.450;2023-05-07T03:44:49;25.73;;;22.10;;
15938;SDS011;8068;51.322;9.450;2023-05-07T03:47:15;27.73;;;22.07;;
15938;SDS011;8068;51.322;9.450;2023-05-07T03:49:41;30.23;;;21.30;;
15938;SDS011;8068;51.322;9.450;2023-05-07T03:52:07;30.13;;;24.07;;
15938;SDS011;8068;51.322;9.450;2023-05-07T03:54:34;38.30;;;24.70;;
15938;SDS011;8068;51.322;9.450;2023-05-07T03:57:00;31.93;;;22.90;;
15938;SDS011;8068;51.322;9.450;2023-05-07T03:59:26;29.33;;;21.80;;
15938;SDS011;8068;51.322;9.450;2023-05-07T04:01:52;26.60;;;22.23;;
15938;SDS011;8068;51.322;9.450;2023-05-07T04:04:18;30.57;;;22.70;;
15938;SDS011;8068;51.322;9.450;2023-05-07T04:06:44;28.10;;;21.30;;
15938;SDS011;8068;51.322;9.450;2023-05-07T04:09:10;27.23;;;21.60;;
15938;SDS011;8068;51.322;9.450;2023-05-07T04:11:36;30.37;;;22.90;;
15938;SDS011;8068;51.322;9.450;2023-05-07T04:14:03;28.40;;;21.77;;
15938;SDS011;8068;51.322;9.450;2023-05-07T04:16:29;27.03;;;21.20;;
15938;SDS011;8068;51.322;9.450;2023-05-07T04:18:55;27.57;;;21.77;;
15938;SDS011;8068;51.322;9.450;2023-05-07T04:21:21;27.00;;;22.10;;
15938;SDS011;8068;51.322;9.450;2023-05-07T04:23:47;35.70;;;23.33;;
15938;SDS011;8068;51.322;9.450;2023-05-07T04:26:14;30.03;;;23.73;;
15938;SDS011;8068;51.322;9.450;2023-05-07T04:28:41;29.60;;;23.07;;
15938;SDS011;8068;51.322;9.450;2023-05-07T04:31:07;30.00;;;22.57;;
15938;SDS011;8068;51.322;9.450;2023-05-07T04:33:34;26.80;;;22.17;;
15938;SDS011;8068;51.322;9.450;2023-05-07T04:36:03;30.80;;;24.27;;
15938;SDS011;8068;51.322;9.450;2023-05-07T04:38:30;36.47;;;23.87;;
15938;SDS011;8068;51.322;9.450;2023-05-07T04:40:57;30.33;;;22.90;;
15938;SDS011;8068;51.322;9.450;2023-05-07T04:43:24;29.23;;;23.07;;
15938;SDS011;8068;51.322;9.450;2023-05-07T04:45:50;30.30;;;22.70;;
15938;SDS011;8068;51.322;9.450;2023-05-07T04:48:17;29.30;;;23.67;;
15938;SDS011;8068;51.322;9.450;2023-05-07T04:50:51;24.83;;;20.43;;
15938;SDS011;8068;51.322;9.450;2023-05-07T04:53:17;26.20;;;20.57;;
15938;SDS011;8068;51.322;9.450;2023-05-07T04:55:44;32.83;;;21.70;;
15938;SDS011;8068;51.322;9.450;2023-05-07T04:58:13;30.80;;;22.87;;
15938;SDS011;8068;51.322;9.450;2023-05-07T05:00:39;27.37;;;21.50;;
15938;SDS011;8068;51.322;9.450;2023-05-07T05:03:06;26.83;;;21.60;;
15938;SDS011;8068;51.322;9.450;2023-05-07T05:05:33;24.47;;;20.57;;
15938;SDS011;8068;51.322;9.450;2023-05-07T05:07:59;25.47;;;20.57;;
15938;SDS011;8068;51.322;9.450;2023-05-07T05:10:25;28.10;;;21.23;;
15938;SDS011;8068;51.322;9.450;2023-05-07T05:12:51;22.10;;;18.00;;
15938;SDS011;8068;51.322;9.450;2023-05-07T05:15:17;21.77;;;17.90;;
15938;SDS011;8068;51.322;9.450;2023-05-07T05:17:43;26.30;;;18.03;;
15938;SDS011;8068;51.322;9.450;2023-05-07T05:20:10;21.50;;;18.50;;
15938;SDS011;8068;51.322;9.450;2023-05-07T05:22:38;22.43;;;17.53;;
15938;SDS011;8068;51.322;9.450;2023-05-07T05:25:04;22.53;;;18.23;;
15938;SDS011;8068;51.322;9.450;2023-05-07T05:27:30;18.97;;;16.97;;
15938;SDS011;8068;51.322;9.450;2023-05-07T05:29:56;21.60;;;17.00;;
15938;SDS011;8068;51.322;9.450;2023-05-07T05:32:23;18.57;;;15.77;;
15938;SDS011;8068;51.322;9.450;2023-05-07T05:34:49;15.23;;;13.73;;
15938;SDS011;8068;51.322;9.450;2023-05-07T05:37:15;17.40;;;14.73;;
15938;SDS011;8068;51.322;9.450;2023-05-07T05:39:41;17.73;;;15.00;;
15938;SDS011;8068;51.322;9.450;2023-05-07T05:42:08;18.73;;;16.70;;
15938;SDS011;8068;51.322;9.450;2023-05-07T05:44:34;18.17;;;15.40;;
15938;SDS011;8068;51.322;9.450;2023-05-07T05:47:00;27.60;;;19.10;;
15938;SDS011;8068;51.322;9.450;2023-05-07T05:49:26;26.37;;;19.60;;
15938;SDS011;8068;51.322;9.450;2023-05-07T05:51:52;21.40;;;16.77;;
15938;SDS011;8068;51.322;9.450;2023-05-07T05:54:18;19.07;;;15.77;;
15938;SDS011;8068;51.322;9.450;2023-05-07T05:56:44;14.23;;;12.73;;
15938;SDS011;8068;51.322;9.450;2023-05-07T05:59:11;13.10;;;11.73;;
15938;SDS011;8068;51.322;9.450;2023-05-07T06:01:37;15.87;;;14.20;;
15938;SDS011;8068;51.322;9.450;2023-05-07T06:04:03;14.40;;;13.00;;
15938;SDS011;8068;51.322;9.450;2023-05-07T06:06:30;13.30;;;12.03;;
15938;SDS011;8068;51.322;9.450;2023-05-07T06:08:57;12.90;;;11.67;;
15938;SDS011;8068;51.322;9.450;2023-05-07T06:11:23;12.50;;;11.20;;
15938;SDS011;8068;51.322;9.450;2023-05-07T06:13:49;16.20;;;11.20;;
15938;SDS011;8068;51.322;9.450;2023-05-07T06:16:15;13.03;;;11.83;;
15938;SDS011;8068;51.322;9.450;2023-05-07T06:18:42;12.67;;;11.53;;
15938;SDS011;8068;51.322;9.450;2023-05-07T06:21:09;21.53;;;17.30;;
15938;SDS011;8068;51.322;9.450;2023-05-07T06:23:35;23.30;;;18.20;;
15938;SDS011;8068;51.322;9.450;2023-05-07T06:26:01;21.17;;;16.63;;
15938;SDS011;8068;51.322;9.450;2023-05-07T06:28:28;15.30;;;13.80;;
15938;SDS011;8068;51.322;9.450;2023-05-07T06:31:10;18.17;;;12.90;;
15938;SDS011;8068;51.322;9.450;2023-05-07T06:33:39;13.97;;;12.57;;
15938;SDS011;8068;51.322;9.450;2023-05-07T06:36:05;12.40;;;11.10;;
15938;SDS011;8068;51.322;9.450;2023-05-07T06:38:32;12.43;;;11.17;;
15938;SDS011;8068;51.322;9.450;2023-05-07T06:40:58;12.90;;;11.60;;
15938;SDS011;8068;51.322;9.450;2023-05-07T06:43:24;11.73;;;10.63;;
15938;SDS011;8068;51.322;9.450;2023-05-07T06:45:50;11.80;;;10.63;;
15938;SDS011;8068;51.322;9.450;2023-05-07T06:48:16;13.73;;;10.90;;
15938;SDS011;8068;51.322;9.450;2023-05-07T06:50:43;12.53;;;11.23;;
15938;SDS011;8068;51.322;9.450;2023-05-07T06:53:09;12.83;;;11.63;;
15938;SDS011;8068;51.322;9.450;2023-05-07T06:55:35;12.03;;;10.83;;
15938;SDS011;8068;51.322;9.450;2023-05-07T06:58:01;13.20;;;11.87;;
15938;SDS011;8068;51.322;9.450;2023-05-07T07:00:27;12.10;;;10.90;;
15938;SDS011;8068;51.322;9.450;2023-05-07T07:02:54;11.50;;;10.40;;
15938;SDS011;8068;51.322;9.450;2023-05-07T07:05:20;11.93;;;10.73;;
15938;SDS011;8068;51.322;9.450;2023-05-07T07:07:46;11.40;;;10.30;;
15938;SDS011;8068;51.322;9.450;2023-05-07T07:10:19;10.97;;;9.97;;
15938;SDS011;8068;51.322;9.450;2023-05-07T07:12:45;11.27;;;10.17;;
15938;SDS011;8068;51.322;9.450;2023-05-07T07:15:12;14.17;;;11.30;;
15938;SDS011;8068;51.322;9.450;2023-05-07T07:17:39;12.27;;;11.07;;
15938;SDS011;8068;51.322;9.450;2023-05-07T07:20:05;12.80;;;11.60;;
15938;SDS011;8068;51.322;9.450;2023-05-07T07:22:32;11.67;;;10.60;;
15938;SDS011;8068;51.322;9.450;2023-05-07T07:24:58;11.23;;;10.13;;
15938;SDS011;8068;51.322;9.450;2023-05-07T07:27:24;10.97;;;10.10;;
15938;SDS011;8068;51.322;9.450;2023-05-07T07:29:50;11.30;;;10.13;;
15938;SDS011;8068;51.322;9.450;2023-05-07T07:32:17;10.93;;;10.03;;
15938;SDS011;8068;51.322;9.450;2023-05-07T07:34:43;11.60;;;10.50;;
15938;SDS011;8068;51.322;9.450;2023-05-07T07:37:09;11.20;;;10.20;;
15938;SDS011;8068;51.322;9.450;2023-05-07T07:39:35;10.90;;;9.43;;
15938;SDS011;8068;51.322;9.450;2023-05-07T07:42:03;11.80;;;10.60;;
15938;SDS011;8068;51.322;9.450;2023-05-07T07:44:29;10.53;;;9.50;;
15938;SDS011;8068;51.322;9.450;2023-05-07T07:46:55;11.73;;;10.57;;
15938;SDS011;8068;51.322;9.450;2023-05-07T07:49:21;11.23;;;10.33;;
15938;SDS011;8068;51.322;9.450;2023-05-07T07:51:47;11.07;;;10.17;;
15938;SDS011;8068;51.322;9.450;2023-05-07T07:54:14;11.70;;;10.60;;
15938;SDS011;8068;51.322;9.450;2023-05-07T07:56:40;10.70;;;9.70;;
15938;SDS011;8068;51.322;9.450;2023-05-07T07:59:06;11.73;;;10.60;;
15938;SDS011;8068;51.322;9.450;2023-05-07T08:01:32;9.60;;;8.90;;
15938;SDS011;8068;51.322;9.450;2023-05-07T08:03:58;13.40;;;11.00;;
15938;SDS011;8068;51.322;9.450;2023-05-07T08:06:25;10.00;;;9.20;;
15938;SDS011;8068;51.322;9.450;2023-05-07T08:08:53;11.90;;;10.80;;
15938;SDS011;8068;51.322;9.450;2023-05-07T08:11:19;10.20;;;9.20;;
15938;SDS011;8068;51.322;9.450;2023-05-07T08:13:47;11.33;;;10.23;;
15938;SDS011;8068;51.322;9.450;2023-05-07T08:16:13;9.87;;;9.07;;
15938;SDS011;8068;51.322;9.450;2023-05-07T08:18:39;10.33;;;9.33;;
15938;SDS011;8068;51.322;9.450;2023-05-07T08:21:06;10.77;;;9.73;;
15938;SDS011;8068;51.322;9.450;2023-05-07T08:23:32;10.80;;;9.80;;
15938;SDS011;8068;51.322;9.450;2023-05-07T08:26:00;10.53;;;9.73;;
15938;SDS011;8068;51.322;9.450;2023-05-07T08:28:26;10.00;;;9.20;;
15938;SDS011;8068;51.322;9.450;2023-05-07T08:30:52;9.40;;;8.50;;
15938;SDS011;8068;51.322;9.450;2023-05-07T08:33:19;9.43;;;8.43;;
15938;SDS011;8068;51.322;9.450;2023-05-07T08:35:45;9.03;;;8.23;;
15938;SDS011;8068;51.322;9.450;2023-05-07T08:38:11;9.57;;;8.73;;
15938;SDS011;8068;51.322;9.450;2023-05-07T08:40:38;9.53;;;8.63;;
15938;SDS011;8068;51.322;9.450;2023-05-07T08:43:05;10.87;;;9.77;;
15938;SDS011;8068;51.322;9.450;2023-05-07T08:45:32;9.80;;;8.90;;
15938;SDS011;8068;51.322;9.450;2023-05-07T08:48:00;9.13;;;8.33;;
15938;SDS011;8068;51.322;9.450;2023-05-07T08:50:29;8.87;;;8.27;;
15938;SDS011;8068;51.322;9.450;2023-05-07T08:52:55;11.43;;;8.60;;
15938;SDS011;8068;51.322;9.450;2023-05-07T08:55:22;9.90;;;9.10;;
15938;SDS011;8068;51.322;9.450;2023-05-07T08:57:50;9.53;;;8.73;;
15938;SDS011;8068;51.322;9.450;2023-05-07T09:00:18;9.40;;;8.60;;
15938;SDS011;8068;51.322;9.450;2023-05-07T09:02:44;9.33;;;8.63;;
15938;SDS011;8068;51.322;9.450;2023-05-07T09:05:10;9.30;;;8.47;;
15938;SDS011;8068;51.322;9.450;2023-05-07T09:07:37;8.27;;;7.70;;
15938;SDS011;8068;51.322;9.450;2023-05-07T09:10:04;8.23;;;7.63;;
15938;SDS011;8068;51.322;9.450;2023-05-07T09:12:31;8.40;;;7.70;;
15938;SDS011;8068;51.322;9.450;2023-05-07T09:14:58;7.00;;;6.40;;
15938;SDS011;8068;51.322;9.450;2023-05-07T09:17:25;8.13;;;7.43;;
15938;SDS011;8068;51.322;9.450;2023-05-07T09:19:51;6.30;;;5.90;;
15938;SDS011;8068;51.322;9.450;2023-05-07T09:22:19;7.40;;;6.90;;
15938;SDS011;8068;51.322;9.450;2023-05-07T09:24:49;7.40;;;6.80;;
15938;SDS011;8068;51.322;9.450;2023-05-07T09:27:17;6.93;;;6.53;;
15938;SDS011;8068;51.322;9.450;2023-05-07T09:29:44;6.57;;;6.10;;
15938;SDS011;8068;51.322;9.450;2023-05-07T09:32:10;7.27;;;6.60;;
15938;SDS011;8068;51.322;9.450;2023-05-07T09:34:37;6.67;;;6.20;;
15938;SDS011;8068;51.322;9.450;2023-05-07T09:37:04;6.80;;;6.30;;
15938;SDS011;8068;51.322;9.450;2023-05-07T09:42:13;6.53;;;6.13;;
15938;SDS011;8068;51.322;9.450;2023-05-07T09:44:45;6.40;;;5.90;;
15938;SDS011;8068;51.322;9.450;2023-05-07T09:47:11;4.73;;;4.53;;
15938;SDS011;8068;51.322;9.450;2023-05-07T09:49:45;4.07;;;3.63;;
15938;SDS011;8068;51.322;9.450;2023-05-07T09:52:13;4.57;;;4.27;;
15938;SDS011;8068;51.322;9.450;2023-05-07T09:54:40;6.13;;;5.37;;
15938;SDS011;8068;51.322;9.450;2023-05-07T09:57:11;4.03;;;3.90;;
15938;SDS011;8068;51.322;9.450;2023-05-07T09:59:38;3.57;;;3.27;;
15938;SDS011;8068;51.322;9.450;2023-05-07T10:02:08;4.20;;;3.90;;
15938;SDS011;8068;51.322;9.450;2023-05-07T10:04:36;4.40;;;4.10;;
15938;SDS011;8068;51.322;9.450;2023-05-07T10:07:03;4.27;;;4.07;;
15938;SDS011;8068;51.322;9.450;2023-05-07T10:09:29;3.67;;;3.47;;
15938;SDS011;8068;51.322;9.450;2023-05-07T10:11:56;4.00;;;3.70;;
15938;SDS011;8068;51.322;9.450;2023-05-07T10:14:23;3.83;;;3.63;;
15938;SDS011;8068;51.322;9.450;2023-05-07T10:16:49;4.40;;;4.20;;
15938;SDS011;8068;51.322;9.450;2023-05-07T10:19:15;3.57;;;3.43;;
15938;SDS011;8068;51.322;9.450;2023-05-07T10:21:44;3.63;;;3.33;;
15938;SDS011;8068;51.322;9.450;2023-05-07T10:24:21;3.43;;;3.17;;
15938;SDS011;8068;51.322;9.450;2023-05-07T10:26:53;3.37;;;3.17;;
15938;SDS011;8068;51.322;9.450;2023-05-07T10:34:29;3.60;;;3.40;;
15938;SDS011;8068;51.322;9.450;2023-05-07T10:36:59;3.60;;;3.10;;
15938;SDS011;8068;51.322;9.450;2023-05-07T10:39:26;2.97;;;2.70;;
15938;SDS011;8068;51.322;9.450;2023-05-07T10:41:52;3.37;;;3.17;;
15938;SDS011;8068;51.322;9.450;2023-05-07T10:44:25;2.97;;;2.77;;
15938;SDS011;8068;51.322;9.450;2023-05-07T10:47:03;5.20;;;3.20;;
15938;SDS011;8068;51.322;9.450;2023-05-07T10:49:38;3.60;;;3.30;;
15938;SDS011;8068;51.322;9.450;2023-05-07T10:52:31;2.97;;;2.77;;
15938;SDS011;8068;51.322;9.450;2023-05-07T10:57:43;2.87;;;2.70;;
15938;SDS011;8068;51.322;9.450;2023-05-07T11:03:07;3.30;;;3.00;;
15938;SDS011;8068;51.322;9.450;2023-05-07T11:05:34;3.30;;;3.10;;
15938;SDS011;8068;51.322;9.450;2023-05-07T11:08:04;3.50;;;3.30;;
15938;SDS011;8068;51.322;9.450;2023-05-07T11:10:49;3.20;;;3.00;;
15938;SDS011;8068;51.322;9.450;2023-05-07T11:16:20;3.30;;;3.00;;
15938;SDS011;8068;51.322;9.450;2023-05-07T11:18:52;4.50;;;4.23;;
15938;SDS011;8068;51.322;9.450;2023-05-07T11:24:05;5.10;;;3.80;;
15938;SDS011;8068;51.322;9.450;2023-05-07T11:26:46;4.60;;;4.40;;
15938;SDS011;8068;51.322;9.450;2023-05-07T11:29:20;4.63;;;4.23;;
15938;SDS011;8068;51.322;9.450;2023-05-07T11:31:49;3.90;;;3.70;;
15938;SDS011;8068;51.322;9.450;2023-05-07T11:34:24;5.17;;;4.87;;
15938;SDS011;8068;51.322;9.450;2023-05-07T11:36:51;6.50;;;6.00;;
15938;SDS011;8068;51.322;9.450;2023-05-07T11:39:30;4.60;;;4.30;;
15938;SDS011;8068;51.322;9.450;2023-05-07T11:41:59;4.50;;;4.20;;
15938;SDS011;8068;51.322;9.450;2023-05-07T11:44:39;4.37;;;4.17;;
15938;SDS011;8068;51.322;9.450;2023-05-07T11:47:09;4.90;;;4.40;;
15938;SDS011;8068;51.322;9.450;2023-05-07T11:49:36;4.87;;;4.47;;
15938;SDS011;8068;51.322;9.450;2023-05-07T11:52:02;4.97;;;4.63;;
15938;SDS011;8068;51.322;9.450;2023-05-07T11:54:35;3.90;;;3.60;;
15938;SDS011;8068;51.322;9.450;2023-05-07T11:57:02;5.87;;;5.30;;
15938;SDS011;8068;51.322;9.450;2023-05-07T11:59:28;5.10;;;4.90;;
15938;SDS011;8068;51.322;9.450;2023-05-07T12:01:57;6.67;;;4.80;;
15938;SDS011;8068;51.322;9.450;2023-05-07T12:04:24;4.87;;;4.67;;
15938;SDS011;8068;51.322;9.450;2023-05-07T12:06:54;5.30;;;5.00;;
15938;SDS011;8068;51.322;9.450;2023-05-07T12:09:21;5.23;;;4.73;;
15938;SDS011;8068;51.322;9.450;2023-05-07T12:11:47;5.80;;;5.50;;
15938;SDS011;8068;51.322;9.450;2023-05-07T12:14:14;4.90;;;4.70;;
15938;SDS011;8068;51.322;9.450;2023-05-07T12:16:41;5.37;;;5.00;;
15938;SDS011;8068;51.322;9.450;2023-05-07T12:19:08;6.30;;;5.80;;
15938;SDS011;8068;51.322;9.450;2023-05-07T12:21:41;5.90;;;5.40;;
15938;SDS011;8068;51.322;9.450;2023-05-07T12:24:07;7.23;;;6.67;;
15938;SDS011;8068;51.322;9.450;2023-05-07T12:26:37;10.40;;;6.30;;
15938;SDS011;8068;51.322;9.450;2023-05-07T12:29:03;7.33;;;6.73;;
15938;SDS011;8068;51.322;9.450;2023-05-07T12:31:30;7.20;;;6.63;;
15938;SDS011;8068;51.322;9.450;2023-05-07T12:33:56;6.90;;;6.50;;
15938;SDS011;8068;51.322;9.450;2023-05-07T12:36:22;6.70;;;6.30;;
15938;SDS011;8068;51.322;9.450;2023-05-07T12:38:51;6.73;;;6.33;;
15938;SDS011;8068;51.322;9.450;2023-05-07T12:41:17;7.37;;;6.70;;
15938;SDS011;8068;51.322;9.450;2023-05-07T12:43:44;8.33;;;6.50;;
15938;SDS011;8068;51.322;9.450;2023-05-07T12:46:11;6.40;;;6.00;;
15938;SDS011;8068;51.322;9.450;2023-05-07T12:48:45;9.57;;;6.60;;
15938;SDS011;8068;51.322;9.450;2023-05-07T12:51:11;8.10;;;7.00;;
15938;SDS011;8068;51.322;9.450;2023-05-07T12:53:39;8.17;;;7.37;;
15938;SDS011;8068;51.322;9.450;2023-05-07T12:56:08;7.20;;;6.57;;
15938;SDS011;8068;51.322;9.450;2023-05-07T12:58:34;8.07;;;7.37;;
15938;SDS011;8068;51.322;9.450;2023-05-07T13:01:04;7.80;;;7.07;;
15938;SDS011;8068;51.322;9.450;2023-05-07T13:03:32;7.57;;;6.87;;
15938;SDS011;8068;51.322;9.450;2023-05-07T13:06:01;6.87;;;6.47;;
15938;SDS011;8068;51.322;9.450;2023-05-07T13:08:33;7.00;;;6.53;;
15938;SDS011;8068;51.322;9.450;2023-05-07T13:11:00;7.67;;;7.07;;
15938;SDS011;8068;51.322;9.450;2023-05-07T13:13:30;8.07;;;7.00;;
15938;SDS011;8068;51.322;9.450;2023-05-07T13:15:58;7.70;;;7.00;;
15938;SDS011;8068;51.322;9.450;2023-05-07T13:18:25;7.00;;;6.50;;
15938;SDS011;8068;51.322;9.450;2023-05-07T13:20:55;9.03;;;6.83;;
15938;SDS011;8068;51.322;9.450;2023-05-07T13:23:21;6.57;;;6.17;;
15938;SDS011;8068;51.322;9.450;2023-05-07T13:25:48;7.13;;;6.33;;
15938;SDS011;8068;51.322;9.450;2023-05-07T13:28:15;6.60;;;6.10;;
15938;SDS011;8068;51.322;9.450;2023-05-07T13:30:41;6.13;;;5.70;;
15938;SDS011;8068;51.322;9.450;2023-05-07T13:33:07;6.93;;;6.43;;
15938;SDS011;8068;51.322;9.450;2023-05-07T13:35:34;7.63;;;6.60;;
15938;SDS011;8068;51.322;9.450;2023-05-07T13:38:00;8.00;;;7.50;;
15938;SDS011;8068;51.322;9.450;2023-05-07T13:40:26;8.93;;;8.10;;
15938;SDS011;8068;51.322;9.450;2023-05-07T13:42:53;8.13;;;7.53;;
15938;SDS011;8068;51.322;9.450;2023-05-07T13:45:19;8.60;;;7.73;;
15938;SDS011;8068;51.322;9.450;2023-05-07T13:47:46;9.07;;;8.40;;
15938;SDS011;8068;51.322;9.450;2023-05-07T13:50:12;11.93;;;8.60;;
15938;SDS011;8068;51.322;9.450;2023-05-07T13:52:42;12.43;;;8.10;;
15938;SDS011;8068;51.322;9.450;2023-05-07T13:55:12;8.00;;;7.30;;
15938;SDS011;8068;51.322;9.450;2023-05-07T13:57:38;8.53;;;7.93;;
15938;SDS011;8068;51.322;9.450;2023-05-07T14:00:05;9.00;;;8.30;;
15938;SDS011;8068;51.322;9.450;2023-05-07T14:02:31;9.17;;;8.30;;
15938;SDS011;8068;51.322;9.450;2023-05-07T14:04:58;9.50;;;8.50;;
15938;SDS011;8068;51.322;9.450;2023-05-07T14:07:24;9.30;;;8.50;;
15938;SDS011;8068;51.322;9.450;2023-05-07T14:09:50;8.80;;;8.00;;
15938;SDS011;8068;51.322;9.450;2023-05-07T14:12:16;9.50;;;8.80;;
15938;SDS011;8068;51.322;9.450;2023-05-07T14:14:42;8.97;;;8.07;;
15938;SDS011;8068;51.322;9.450;2023-05-07T14:17:09;8.70;;;8.10;;
15938;SDS011;8068;51.322;9.450;2023-05-07T14:19:35;8.70;;;8.10;;
15938;SDS011;8068;51.322;9.450;2023-05-07T14:22:01;9.10;;;8.30;;
15938;SDS011;8068;51.322;9.450;2023-05-07T14:24:28;9.67;;;8.80;;
15938;SDS011;8068;51.322;9.450;2023-05-07T14:27:04;8.80;;;8.20;;
15938;SDS011;8068;51.322;9.450;2023-05-07T14:29:31;8.43;;;7.83;;
15938;SDS011;8068;51.322;9.450;2023-05-07T14:31:57;10.80;;;7.37;;
15938;SDS011;8068;51.322;9.450;2023-05-07T14:34:23;8.70;;;8.00;;
15938;SDS011;8068;51.322;9.450;2023-05-07T14:36:49;9.83;;;8.87;;
15938;SDS011;8068;51.322;9.450;2023-05-07T14:39:16;7.63;;;7.10;;
15938;SDS011;8068;51.322;9.450;2023-05-07T14:41:42;8.60;;;8.00;;
15938;SDS011;8068;51.322;9.450;2023-05-07T14:44:08;9.63;;;8.83;;
15938;SDS011;8068;51.322;9.450;2023-05-07T14:46:34;8.43;;;7.83;;
15938;SDS011;8068;51.322;9.450;2023-05-07T14:49:01;9.83;;;8.90;;
15938;SDS011;8068;51.322;9.450;2023-05-07T14:51:28;9.13;;;8.47;;
15938;SDS011;8068;51.322;9.450;2023-05-07T14:53:54;8.80;;;8.20;;
15938;SDS011;8068;51.322;9.450;2023-05-07T14:56:20;9.80;;;9.07;;
15938;SDS011;8068;51.322;9.450;2023-05-07T14:58:47;8.50;;;7.80;;
15938;SDS011;8068;51.322;9.450;2023-05-07T15:01:14;9.17;;;8.47;;
15938;SDS011;8068;51.322;9.450;2023-05-07T15:03:40;9.43;;;8.00;;
15938;SDS011;8068;51.322;9.450;2023-05-07T15:06:07;8.23;;;7.60;;